Time;durP1;ratioP1;P1;durP2;ratioP2;P2;SDS_P1;SDS_P2;PMS_P1;PMS_P2;Temp;Humidity;BMP_temperature;BMP_pressure;BME280_temperature;BME280_humidity;BME280_pressure;Samples;Min_cycle;Max_cycle;Signal;HPM_P1;HPM_P2
2022/08/21 00:02:21;;;;;;;7.15;3.55;;;;;;;20.77;67.49;101136.00;5064342;28;20094;-73
2022/08/21 00:04:48;;;;;;;7.97;3.80;;;;;;;20.94;66.90;101130.06;5067459;28;20036;-73
2022/08/21 00:07:15;;;;;;;6.13;2.92;;;;;;;20.97;65.81;101129.78;5081093;28;20040;-73
2022/08/21 00:09:41;;;;;;;7.40;3.10;;;;;;;20.98;66.05;101130.63;5063944;28;20040;-73
2022/08/21 00:12:09;;;;;;;5.65;2.60;;;;;;;21.02;65.34;101132.88;5065939;28;20045;-74
2022/08/21 00:14:36;;;;;;;3.33;2.30;;;;;;;20.95;65.47;101133.56;5066532;28;20049;-73
2022/08/21 00:17:04;;;;;;;6.47;2.42;;;;;;;21.09;65.31;101130.50;5062846;28;20053;-73
2022/08/21 00:19:31;;;;;;;5.25;2.40;;;;;;;20.68;65.87;101128.84;5065549;28;20052;-73
2022/08/21 00:21:57;;;;;;;5.88;2.53;;;;;;;20.69;66.45;101114.53;5065875;28;20115;-73
2022/08/21 00:24:25;;;;;;;6.82;2.83;;;;;;;20.18;67.79;101126.03;5065358;28;20106;-73
2022/08/21 00:26:52;;;;;;;6.13;3.13;;;;;;;20.39;67.60;101126.91;5066599;28;20458;-73
2022/08/21 00:29:20;;;;;;;7.70;3.33;;;;;;;20.67;66.41;101124.47;5065185;28;20066;-73
2022/08/21 00:31:47;;;;;;;7.03;3.42;;;;;;;20.63;66.88;101129.25;5062754;28;20412;-73
2022/08/21 00:34:14;;;;;;;8.48;3.13;;;;;;;20.70;66.07;101119.72;5066295;28;20102;-73
2022/08/21 00:36:41;;;;;;;6.00;3.03;;;;;;;20.77;65.25;101136.84;5073588;28;20044;-73
2022/08/21 00:39:08;;;;;;;6.65;3.17;;;;;;;20.91;66.11;101133.00;5065184;28;20048;-73
2022/08/21 00:41:37;;;;;;;9.40;3.35;;;;;;;21.01;65.12;101122.34;5066300;28;20048;-73
2022/08/21 00:44:04;;;;;;;14.40;3.70;;;;;;;21.13;63.82;101127.47;5064848;28;20504;-73
2022/08/21 00:46:32;;;;;;;5.50;2.45;;;;;;;21.31;63.10;101131.16;5065530;28;20047;-73
2022/08/21 00:48:58;;;;;;;7.10;2.80;;;;;;;21.25;62.99;101130.81;5065193;28;20044;-73
2022/08/21 00:51:29;;;;;;;4.80;2.30;;;;;;;21.40;62.67;101132.09;5079261;28;20048;-73
2022/08/21 00:54:01;;;;;;;5.10;2.40;;;;;;;21.46;62.03;101120.91;5086522;27;20040;-73
2022/08/21 00:56:28;;;;;;;7.33;3.13;;;;;;;21.46;62.39;101123.56;5083638;27;20055;-75
2022/08/21 00:58:57;;;;;;;6.72;2.60;;;;;;;21.41;62.57;101120.47;5064025;28;20041;-74
2022/08/21 01:01:24;;;;;;;4.53;2.28;;;;;;;21.35;63.23;101116.56;5063764;28;20041;-75
2022/08/21 01:03:51;;;;;;;7.80;2.85;;;;;;;21.40;62.58;101120.59;5065995;28;20049;-75
2022/08/21 01:06:18;;;;;;;5.93;2.42;;;;;;;21.10;63.05;101116.19;5078154;28;20112;-74
2022/08/21 01:08:45;;;;;;;5.55;2.22;;;;;;;21.09;64.11;101119.84;5085371;28;20040;-73
2022/08/21 01:11:12;;;;;;;5.93;2.63;;;;;;;21.29;63.01;101117.09;5086625;28;20044;-73
2022/08/21 01:13:45;;;;;;;4.72;2.20;;;;;;;21.12;62.74;101122.25;5085591;28;20060;-72
2022/08/21 01:16:14;;;;;;;9.55;3.00;;;;;;;21.35;62.23;101116.56;5084511;28;20134;-72
2022/08/21 01:18:40;;;;;;;13.52;2.92;;;;;;;21.25;62.40;101115.69;5064968;28;20048;-72
2022/08/21 01:21:11;;;;;;;5.20;2.90;;;;;;;21.31;62.54;101114.28;5079020;28;20048;-74
2022/08/21 01:23:40;;;;;;;6.40;2.40;;;;;;;21.31;62.51;101109.81;5082398;27;20119;-74
2022/08/21 01:26:07;;;;;;;7.50;2.13;;;;;;;21.23;63.43;101112.31;5084102;27;20052;-74
2022/08/21 01:28:37;;;;;;;4.97;2.47;;;;;;;21.06;63.67;101115.63;5086502;27;20073;-74
2022/08/21 01:31:07;;;;;;;13.43;2.50;;;;;;;20.85;64.57;101115.72;5083958;27;20059;-75
2022/08/21 01:33:34;;;;;;;4.68;2.53;;;;;;;20.61;65.14;101115.22;5071150;27;20048;-74
2022/08/21 01:36:00;;;;;;;5.68;2.22;;;;;;;20.69;64.79;101114.53;5087313;28;20057;-74
2022/08/21 01:38:28;;;;;;;7.47;2.70;;;;;;;20.75;65.23;101111.31;5084615;28;20048;-74
2022/08/21 01:40:54;;;;;;;8.23;2.42;;;;;;;20.12;68.23;101118.59;5083896;28;20040;-74
2022/08/21 01:43:21;;;;;;;7.55;2.78;;;;;;;20.32;67.65;101120.38;5084956;28;20082;-74
2022/08/21 01:45:47;;;;;;;5.93;2.20;;;;;;;20.51;66.92;101116.97;5084614;28;20085;-74
2022/08/21 01:48:13;;;;;;;4.95;2.20;;;;;;;20.83;65.76;101116.84;5083870;28;20145;-74
2022/08/21 01:50:40;;;;;;;7.55;2.80;;;;;;;21.07;64.85;101111.97;5086953;28;20040;-74
2022/08/21 01:53:06;;;;;;;4.20;2.30;;;;;;;21.08;65.15;101110.16;5084982;28;20598;-74
2022/08/21 01:55:34;;;;;;;5.57;2.28;;;;;;;21.08;65.11;101116.31;5082331;28;20492;-74
2022/08/21 01:58:00;;;;;;;7.95;2.90;;;;;;;21.04;63.95;101112.25;5084825;28;20105;-74
2022/08/21 02:00:27;;;;;;;7.60;2.45;;;;;;;21.17;62.08;101118.22;5083731;28;20089;-74
2022/08/21 02:02:54;;;;;;;8.20;2.42;;;;;;;21.25;62.06;101113.00;5072475;28;20557;-74
2022/08/21 02:05:21;;;;;;;8.10;2.40;;;;;;;21.24;62.54;101110.50;5074308;28;20044;-73
2022/08/21 02:07:50;;;;;;;11.40;2.38;;;;;;;20.96;64.12;101105.91;5084298;28;20121;-73
2022/08/21 02:10:20;;;;;;;9.15;2.95;;;;;;;21.00;63.67;101112.66;5083161;28;20565;-75
2022/08/21 02:12:49;;;;;;;7.20;2.05;;;;;;;20.87;63.74;101112.91;5085792;28;20048;-74
2022/08/21 02:15:16;;;;;;;7.63;2.40;;;;;;;20.96;64.22;101114.75;5085199;28;20043;-74
2022/08/21 02:17:46;;;;;;;4.45;1.98;;;;;;;21.18;63.22;101114.53;5075517;28;20045;-74
2022/08/21 02:20:17;;;;;;;9.13;2.45;;;;;;;21.35;62.29;101103.22;5074236;28;20105;-74
2022/08/21 02:22:44;;;;;;;7.05;2.50;;;;;;;21.35;62.85;101103.22;5085174;27;20040;-74
2022/08/21 02:25:10;;;;;;;7.55;3.30;;;;;;;21.31;62.48;101103.63;5083942;28;20499;-74
2022/08/21 02:27:40;;;;;;;9.68;3.90;;;;;;;21.14;63.30;101094.47;5084258;28;20044;-74
2022/08/21 02:30:10;;;;;;;10.15;4.22;;;;;;;21.06;63.08;101102.31;5084854;28;20062;-74
2022/08/21 02:32:36;;;;;;;8.68;4.00;;;;;;;20.88;63.35;101096.78;5069475;28;20045;-74
2022/08/21 02:35:04;;;;;;;8.45;4.68;;;;;;;20.87;63.53;101100.44;5073119;28;20048;-74
2022/08/21 02:37:30;;;;;;;8.45;3.88;;;;;;;20.92;63.60;101096.50;5065068;28;20090;-74
2022/08/21 02:39:56;;;;;;;10.85;4.18;;;;;;;20.74;64.23;101109.63;5064374;28;20630;-74
2022/08/21 02:42:23;;;;;;;8.55;4.28;;;;;;;20.66;64.19;101104.13;5064926;28;20447;-74
2022/08/21 02:44:49;;;;;;;8.55;4.68;;;;;;;20.47;65.01;101101.41;5065535;28;20097;-74
2022/08/21 02:47:17;;;;;;;9.32;4.05;;;;;;;20.37;64.96;101102.22;5063963;28;20090;-74
2022/08/21 02:49:43;;;;;;;9.07;4.63;;;;;;;19.89;66.40;101093.06;5063750;28;20504;-75
2022/08/21 02:52:11;;;;;;;8.52;3.97;;;;;;;19.50;68.86;101101.75;5065147;28;20488;-74
2022/08/21 02:54:38;;;;;;;7.28;3.38;;;;;;;19.67;68.31;101096.72;5079322;28;20042;-74
2022/08/21 02:57:04;;;;;;;9.57;3.60;;;;;;;19.82;67.30;101100.75;5082917;28;20097;-74
2022/08/21 02:59:31;;;;;;;11.55;3.70;;;;;;;19.65;68.18;101100.47;5088393;28;20399;-74
2022/08/21 03:01:57;;;;;;;9.93;3.92;;;;;;;19.41;68.81;101096.22;5081836;28;20040;-74
2022/08/21 03:04:25;;;;;;;8.57;3.22;;;;;;;19.32;69.25;101099.63;5063391;28;20567;-74
2022/08/21 03:06:52;;;;;;;7.82;3.67;;;;;;;19.20;69.56;101097.13;5082302;28;20048;-74
2022/08/21 03:09:18;;;;;;;9.02;3.63;;;;;;;19.42;68.39;101092.59;5082389;28;20047;-75
2022/08/21 03:11:45;;;;;;;8.77;3.30;;;;;;;19.42;68.50;101099.72;5083809;28;20048;-75
2022/08/21 03:14:11;;;;;;;11.90;3.92;;;;;;;19.24;68.68;101094.09;5085720;28;20044;-75
2022/08/21 03:16:38;;;;;;;7.43;3.42;;;;;;;19.14;69.39;101103.75;5078419;28;20048;-75
2022/08/21 03:19:04;;;;;;;6.00;3.20;;;;;;;19.32;68.58;101112.91;5063851;28;20048;-75
2022/08/21 03:21:32;;;;;;;8.90;3.63;;;;;;;19.13;69.09;101102.09;5101307;27;20418;-74
2022/08/21 03:23:59;;;;;;;6.90;3.63;;;;;;;19.23;68.77;101103.03;5095912;27;20495;-74
2022/08/21 03:26:26;;;;;;;10.35;3.40;;;;;;;19.06;69.38;101110.69;5082083;28;20097;-74
2022/08/21 03:28:52;;;;;;;8.00;3.28;;;;;;;19.12;69.42;101113.69;5084202;28;20044;-74
2022/08/21 03:31:19;;;;;;;6.78;3.15;;;;;;;19.18;68.71;101109.69;5078924;28;20044;-74
2022/08/21 03:33:45;;;;;;;12.25;3.05;;;;;;;19.15;68.66;101109.94;5074201;28;20121;-74
2022/08/21 03:36:11;;;;;;;10.05;3.13;;;;;;;18.91;68.89;101100.34;5083748;28;20040;-74
2022/08/21 03:38:40;;;;;;;10.30;3.38;;;;;;;18.99;68.86;101109.50;5082672;28;20056;-74
2022/08/21 03:41:07;;;;;;;7.93;3.00;;;;;;;18.87;69.10;101108.69;5082870;28;20059;-74
2022/08/21 03:43:34;;;;;;;6.95;3.00;;;;;;;18.78;69.42;101112.91;5074973;28;20048;-74
2022/08/21 03:46:03;;;;;;;8.38;3.17;;;;;;;18.61;70.31;101110.75;5082305;28;20036;-74
2022/08/21 03:48:29;;;;;;;7.90;3.30;;;;;;;18.74;69.70;101106.13;5072421;28;20044;-74
2022/08/21 03:50:56;;;;;;;7.38;3.00;;;;;;;18.79;69.56;101103.97;5075746;28;20412;-74
2022/08/21 03:53:22;;;;;;;5.85;3.08;;;;;;;18.73;69.19;101111.59;5084964;28;20534;-72
2022/08/21 03:55:52;;;;;;;9.88;3.28;;;;;;;18.75;69.74;101107.00;5087340;27;20489;-74
2022/08/21 03:58:22;;;;;;;5.63;2.90;;;;;;;18.73;69.22;101101.81;5111821;27;20039;-74
2022/08/21 04:00:51;;;;;;;9.68;3.65;;;;;;;18.75;69.39;101107.84;5081410;28;20040;-73
2022/08/21 04:03:19;;;;;;;6.32;3.20;;;;;;;18.52;69.81;101107.97;5086124;28;20056;-74
2022/08/21 04:05:46;;;;;;;7.38;3.15;;;;;;;18.57;70.15;101104.00;5086081;28;20058;-74
2022/08/21 04:08:17;;;;;;;8.10;3.22;;;;;;;18.56;69.68;101104.09;5088183;28;20059;-74
2022/08/21 04:10:44;;;;;;;7.10;3.47;;;;;;;18.55;69.90;101107.75;5079107;27;20048;-74
2022/08/21 04:13:12;;;;;;;9.10;3.67;;;;;;;18.67;69.43;101107.59;5066530;28;20052;-74
2022/08/21 04:15:39;;;;;;;12.98;3.47;;;;;;;18.45;69.80;101110.22;5082965;27;20044;-74
2022/08/21 04:18:06;;;;;;;5.28;2.63;;;;;;;18.32;70.09;101115.69;5088091;28;20044;-74
2022/08/21 04:20:33;;;;;;;7.78;3.15;;;;;;;18.49;70.09;101117.00;5085061;27;20495;-74
2022/08/21 04:22:59;;;;;;;6.10;2.75;;;;;;;18.51;69.03;101119.53;5086465;27;20097;-75
2022/08/21 04:25:26;;;;;;;5.13;2.97;;;;;;;18.54;69.34;101124.63;5086436;27;20500;-75
2022/08/21 04:27:52;;;;;;;6.03;3.00;;;;;;;18.39;69.64;101114.22;5084670;27;20044;-75
2022/08/21 04:30:23;;;;;;;3.80;2.83;;;;;;;18.40;70.09;101121.19;5087132;28;20052;-75
2022/08/21 04:32:51;;;;;;;6.47;3.03;;;;;;;18.36;69.59;101116.28;5071134;28;20074;-75
2022/08/21 04:35:21;;;;;;;4.50;2.60;;;;;;;18.46;69.22;101126.06;5066692;28;20098;-75
2022/08/21 04:37:48;;;;;;;5.63;3.00;;;;;;;18.32;70.09;101125.44;5086254;28;20090;-75
2022/08/21 04:40:17;;;;;;;4.03;2.90;;;;;;;18.23;70.27;101129.66;5086271;28;20488;-75
2022/08/21 04:42:49;;;;;;;6.47;2.58;;;;;;;18.29;70.46;101136.31;5084572;28;20044;-75
2022/08/21 04:45:23;;;;;;;6.07;2.80;;;;;;;17.98;71.54;101136.00;5086157;28;20411;-74
2022/08/21 04:47:51;;;;;;;8.35;3.10;;;;;;;17.94;72.66;101133.69;5085709;28;20044;-74
2022/08/21 04:50:18;;;;;;;8.18;3.15;;;;;;;17.93;73.41;101135.50;5085798;28;20097;-74
2022/08/21 04:52:46;;;;;;;6.13;2.97;;;;;;;18.16;72.82;101139.06;5086286;28;20097;-74
2022/08/21 04:55:12;;;;;;;8.57;2.90;;;;;;;18.39;71.61;101135.47;5084039;28;20521;-74
2022/08/21 04:57:40;;;;;;;11.15;2.80;;;;;;;18.18;72.87;101145.06;5108384;27;20044;-74
2022/08/21 05:00:09;;;;;;;10.07;3.22;;;;;;;18.17;72.81;101137.25;5099013;28;20059;-74
2022/08/21 05:02:37;;;;;;;7.25;3.08;;;;;;;18.26;72.88;101147.97;5077529;28;20172;-74
2022/08/21 05:05:05;;;;;;;6.15;2.78;;;;;;;18.32;72.72;101152.00;5071655;28;20055;-74
2022/08/21 05:07:32;;;;;;;8.63;3.88;;;;;;;18.38;72.59;101149.69;5086487;28;20127;-74
2022/08/21 05:10:00;;;;;;;7.82;2.97;;;;;;;18.04;73.71;101155.91;5084588;28;20457;-74
2022/08/21 05:12:27;;;;;;;5.93;2.85;;;;;;;17.90;75.10;101150.81;5085782;28;20048;-75
2022/08/21 05:14:53;;;;;;;10.50;3.35;;;;;;;18.13;74.46;101151.72;5087576;28;20104;-75
2022/08/21 05:17:19;;;;;;;10.32;3.30;;;;;;;18.23;74.31;101152.69;5084359;28;20105;-75
2022/08/21 05:19:47;;;;;;;6.82;3.15;;;;;;;18.23;74.73;101156.19;5085011;28;20476;-74
2022/08/21 05:22:20;;;;;;;5.47;3.17;;;;;;;18.35;74.90;101165.88;5087169;28;20040;-74
2022/08/21 05:24:46;;;;;;;3.92;2.78;;;;;;;18.45;74.91;101158.03;5085367;28;20079;-75
2022/08/21 05:27:13;;;;;;;8.15;3.42;;;;;;;18.27;75.87;101162.97;5086015;28;20161;-75
2022/08/21 05:29:39;;;;;;;7.10;3.20;;;;;;;18.40;75.53;101166.34;5091164;28;20073;-75
2022/08/21 05:32:10;;;;;;;4.70;2.85;;;;;;;18.96;73.60;101159.25;5082227;28;20446;-75
2022/08/21 05:34:36;;;;;;;8.00;2.97;;;;;;;18.94;72.34;101160.34;5063842;28;20058;-73
2022/08/21 05:37:04;;;;;;;7.35;3.20;;;;;;;18.95;73.88;101159.41;5065021;28;20048;-73
2022/08/21 05:39:31;;;;;;;6.53;2.97;;;;;;;19.34;73.29;101168.63;5057982;28;20419;-74
2022/08/21 05:41:58;;;;;;;5.95;2.90;;;;;;;19.64;71.90;101173.28;5064263;28;20165;-72
2022/08/21 05:44:24;;;;;;;6.82;2.90;;;;;;;19.95;70.51;101168.91;5074785;27;20098;-72
2022/08/21 05:46:50;;;;;;;5.60;3.40;;;;;;;20.21;69.96;101168.38;5065018;28;20098;-71
2022/08/21 05:49:17;;;;;;;5.13;2.67;;;;;;;20.56;68.14;101169.88;5064701;28;20074;-72
2022/08/21 05:51:43;;;;;;;5.05;3.05;;;;;;;20.42;64.99;101173.72;5064971;28;20066;-72
2022/08/21 05:54:11;;;;;;;8.02;2.55;;;;;;;20.45;65.17;101172.63;5064197;28;20404;-74
2022/08/21 05:56:38;;;;;;;4.80;2.20;;;;;;;20.80;62.97;101173.91;5086873;28;20035;-73
2022/08/21 05:59:04;;;;;;;9.75;2.58;;;;;;;21.14;62.81;101169.13;5105184;28;20044;-74
2022/08/21 06:01:31;;;;;;;4.43;2.28;;;;;;;21.21;61.01;101166.78;5093384;28;20078;-74
2022/08/21 06:03:58;;;;;;;5.93;2.10;;;;;;;21.20;61.72;101159.75;5084503;28;20047;-75
2022/08/21 06:06:24;;;;;;;5.07;2.08;;;;;;;21.62;60.96;101168.34;5086613;28;20097;-74
2022/08/21 06:08:50;;;;;;;4.53;1.80;;;;;;;22.09;58.25;101167.53;5082652;28;20097;-74
2022/08/21 06:11:18;;;;;;;3.92;2.15;;;;;;;22.09;56.92;101159.53;5085234;28;20040;-74
2022/08/21 06:13:44;;;;;;;4.20;1.85;;;;;;;22.44;56.81;101161.53;5076706;27;20048;-74
2022/08/21 06:16:12;;;;;;;5.60;2.22;;;;;;;22.09;57.01;101162.22;5084431;27;20445;-74
2022/08/21 06:18:40;;;;;;;6.88;2.40;;;;;;;22.26;56.32;101166.81;5085296;27;20040;-74
2022/08/21 06:21:07;;;;;;;6.03;2.35;;;;;;;22.37;56.07;101168.47;5086556;27;20052;-72
2022/08/21 06:23:35;;;;;;;8.10;2.55;;;;;;;22.50;56.08;101162.81;5083346;27;20112;-74
2022/08/21 06:26:02;;;;;;;6.45;2.25;;;;;;;22.51;56.25;101159.13;5083807;27;20056;-74
2022/08/21 06:28:30;;;;;;;8.43;2.47;;;;;;;22.74;56.06;101155.13;5085225;27;20523;-74
2022/08/21 06:30:56;;;;;;;5.65;2.50;;;;;;;22.48;57.06;101168.28;5082008;27;20040;-73
2022/08/21 06:33:23;;;;;;;9.82;3.78;;;;;;;22.11;58.45;101156.69;5083890;27;20438;-73
2022/08/21 06:35:49;;;;;;;7.72;2.40;;;;;;;22.41;58.04;101166.34;5079280;27;20118;-74
2022/08/21 06:38:16;;;;;;;6.78;1.83;;;;;;;22.78;56.61;101164.56;5083682;28;20105;-74
2022/08/21 06:40:42;;;;;;;7.55;1.90;;;;;;;23.10;55.54;101172.13;5084671;27;20094;-73
2022/08/21 06:43:11;;;;;;;3.10;1.73;;;;;;;23.43;54.80;101166.16;5085142;27;20044;-73
2022/08/21 06:45:38;;;;;;;6.78;2.50;;;;;;;23.43;55.36;101171.53;5083872;27;20078;-74
2022/08/21 06:48:06;;;;;;;3.13;1.88;;;;;;;23.16;55.88;101174.22;5084757;27;20436;-74
2022/08/21 06:50:33;;;;;;;6.07;2.40;;;;;;;23.79;53.55;101175.06;5084062;27;20068;-73
2022/08/21 06:53:01;;;;;;;6.78;1.95;;;;;;;23.36;54.74;101169.56;5083709;27;20108;-75
2022/08/21 06:55:28;;;;;;;5.28;1.95;;;;;;;23.87;54.99;101172.47;5083888;27;20044;-74
2022/08/21 06:57:54;;;;;;;5.95;1.88;;;;;;;24.36;52.12;101173.69;5085796;27;20131;-73
2022/08/21 07:00:21;;;;;;;5.35;1.90;;;;;;;24.43;51.16;101177.41;5081837;27;20470;-74
2022/08/21 07:02:49;;;;;;;6.60;1.98;;;;;;;24.73;48.70;101186.81;5083505;28;20047;-73
2022/08/21 07:05:15;;;;;;;5.68;2.20;;;;;;;25.30;46.28;101171.81;5084196;27;20089;-73
2022/08/21 07:07:41;;;;;;;6.68;2.08;;;;;;;24.89;46.91;101173.50;5082385;27;20044;-72
2022/08/21 07:10:09;;;;;;;5.72;1.70;;;;;;;24.86;49.02;101183.72;5082084;27;20429;-72
2022/08/21 07:12:35;;;;;;;5.20;1.42;;;;;;;24.69;48.12;101172.03;5068621;28;20071;-73
2022/08/21 07:15:02;;;;;;;4.10;1.58;;;;;;;25.12;47.25;101171.09;5083091;27;20048;-74
2022/08/21 07:17:28;;;;;;;7.68;1.80;;;;;;;25.14;46.99;101163.72;5082844;28;20097;-74
2022/08/21 07:19:57;;;;;;;8.77;1.70;;;;;;;25.51;46.07;101168.66;5083727;28;20090;-70
2022/08/21 07:22:23;;;;;;;5.72;1.63;;;;;;;25.59;45.72;101157.97;5083607;28;20048;-70
2022/08/21 07:24:50;;;;;;;3.22;1.35;;;;;;;25.57;46.70;101162.69;5087527;27;20097;-70
2022/08/21 07:27:16;;;;;;;8.40;2.13;;;;;;;25.12;48.76;101149.63;5088697;27;20051;-70
2022/08/21 07:29:42;;;;;;;6.95;1.80;;;;;;;25.30;48.01;101146.81;5087174;27;20070;-70
2022/08/21 07:32:09;;;;;;;3.90;1.50;;;;;;;25.60;45.77;101143.53;5088135;28;20048;-70
2022/08/21 07:34:35;;;;;;;2.35;1.17;;;;;;;25.23;48.52;101135.91;5085908;28;20056;-71
2022/08/21 07:37:03;;;;;;;6.25;1.73;;;;;;;25.81;44.70;101143.88;5086760;28;20060;-71
2022/08/21 07:39:29;;;;;;;4.40;1.65;;;;;;;25.94;44.07;101140.69;5076740;27;20040;-71
2022/08/21 07:41:56;;;;;;;4.75;1.40;;;;;;;26.06;45.07;101148.22;5087815;27;20048;-71
2022/08/21 07:44:22;;;;;;;4.90;1.50;;;;;;;26.04;45.58;101142.19;5067325;28;20086;-71
2022/08/21 07:46:48;;;;;;;3.38;1.40;;;;;;;26.29;47.05;101155.63;5067872;28;20041;-71
2022/08/21 07:49:14;;;;;;;5.88;1.27;;;;;;;26.46;43.61;101152.72;5067071;28;20423;-70
2022/08/21 07:51:41;;;;;;;6.80;1.90;;;;;;;26.43;43.70;101149.53;5057188;28;20102;-70
2022/08/21 07:54:09;;;;;;;4.60;1.40;;;;;;;26.64;43.27;101152.53;5066440;28;20051;-70
2022/08/21 07:56:35;;;;;;;5.40;1.80;;;;;;;27.06;42.32;101154.88;5086927;27;20116;-71
2022/08/21 07:59:02;;;;;;;6.28;1.80;;;;;;;27.92;40.69;101150.13;5084749;28;20055;-71
2022/08/21 08:01:29;;;;;;;5.50;1.40;;;;;;;28.25;40.03;101147.13;5087257;27;20079;-71
2022/08/21 08:03:56;;;;;;;5.80;1.88;;;;;;;27.69;41.59;101149.28;5087892;27;20427;-71
2022/08/21 08:06:22;;;;;;;5.57;1.80;;;;;;;27.67;40.50;101151.34;5085438;27;20073;-71
2022/08/21 08:08:49;;;;;;;3.45;1.35;;;;;;;27.85;43.40;101145.63;5085399;27;20036;-71
2022/08/21 08:11:17;;;;;;;7.60;1.70;;;;;;;26.99;40.12;101144.00;5088151;27;20474;-71
2022/08/21 08:13:46;;;;;;;4.15;1.42;;;;;;;27.41;40.82;101145.44;5085514;27;20040;-70
2022/08/21 08:16:13;;;;;;;7.85;2.15;;;;;;;27.57;39.06;101138.09;5084764;27;20495;-70
2022/08/21 08:18:40;;;;;;;3.00;1.33;;;;;;;27.80;41.54;101132.69;5085687;28;20526;-70
2022/08/21 08:21:06;;;;;;;6.40;1.58;;;;;;;28.10;38.67;101144.41;5085502;27;20059;-70
2022/08/21 08:23:33;;;;;;;6.88;1.80;;;;;;;27.15;40.41;101142.22;5087450;27;20044;-70
2022/08/21 08:25:59;;;;;;;3.70;1.58;;;;;;;26.76;40.40;101131.44;5087419;27;20093;-70
2022/08/21 08:28:27;;;;;;;3.35;1.40;;;;;;;27.07;39.34;101124.25;5069078;27;20113;-70
2022/08/21 08:30:54;;;;;;;6.72;1.73;;;;;;;26.91;40.34;101125.19;5084556;27;20052;-70
2022/08/21 08:33:20;;;;;;;4.40;1.73;;;;;;;27.88;38.03;101123.72;5085826;28;20052;-71
2022/08/21 08:35:49;;;;;;;7.40;1.60;;;;;;;28.23;38.81;101124.94;5084237;27;20047;-71
2022/08/21 08:38:18;;;;;;;6.95;1.83;;;;;;;28.38;37.12;101121.19;5084974;27;20483;-70
2022/08/21 08:40:51;;;;;;;5.97;1.88;;;;;;;27.92;38.32;101119.63;5086085;27;20457;-70
2022/08/21 08:43:18;;;;;;;5.15;2.00;;;;;;;27.20;38.32;101126.41;5078337;27;20048;-70
2022/08/21 08:45:50;;;;;;;3.50;1.23;;;;;;;27.97;37.54;101126.13;5085869;27;20081;-70
2022/08/21 08:48:21;;;;;;;;;;;;;;;27.52;36.80;101123.50;5086360;27;20472;-70
2022/08/21 08:50:53;;;;;;;7.60;2.80;;;;;;;27.35;36.82;101116.50;5085355;27;19920;-70
2022/08/21 08:53:25;;;;;;;4.65;1.30;;;;;;;27.94;39.31;101122.97;5086865;27;20727;-70
2022/08/21 08:55:53;;;;;;;4.70;1.67;;;;;;;28.45;37.70;101114.06;5072430;28;20048;-70
2022/08/21 08:58:24;;;;;;;4.93;1.27;;;;;;;29.44;34.84;101109.91;5086358;28;20097;-71
2022/08/21 09:00:54;;;;;;;5.78;1.40;;;;;;;29.77;33.54;101113.72;5078520;27;20040;-70
2022/08/21 09:03:23;;;;;;;2.85;1.35;;;;;;;29.92;34.98;101116.38;5081769;27;20493;-70
2022/08/21 09:05:56;;;;;;;4.88;1.50;;;;;;;29.52;33.15;101104.38;5083184;27;20119;-70
2022/08/21 09:08:37;;;;;;;8.48;1.70;;;;;;;29.63;34.52;101108.41;5080050;27;20109;-69
2022/08/21 09:11:11;;;;;;;6.05;1.50;;;;;;;30.38;31.38;101100.44;5059434;28;20049;-69
2022/08/21 09:13:50;;;;;;;5.47;1.50;;;;;;;29.91;31.88;101106.59;5084379;27;20475;-70
2022/08/21 09:16:27;;;;;;;6.43;1.70;;;;;;;30.14;32.71;101107.19;5086874;27;20094;-70
2022/08/21 09:19:03;;;;;;;4.03;1.20;;;;;;;30.16;32.44;101106.97;5082465;27;20044;-70
2022/08/21 09:21:40;;;;;;;8.68;1.55;;;;;;;30.14;35.31;101109.06;5065356;28;20044;-70
2022/08/21 09:24:26;;;;;;;4.38;1.45;;;;;;;31.25;30.88;101100.66;5065742;28;20048;-70
2022/08/21 09:27:02;;;;;;;4.18;1.30;;;;;;;30.99;30.62;101106.00;5064943;28;20468;-69
2022/08/21 09:29:32;;;;;;;4.65;1.80;;;;;;;29.42;34.67;101112.78;5063970;28;20276;-69
2022/08/21 09:32:00;;;;;;;6.30;1.42;;;;;;;29.42;39.08;101112.78;5064885;28;20173;-69
2022/08/21 09:34:29;;;;;;;3.47;1.33;;;;;;;30.26;39.21;101118.31;5065578;28;20102;-69
2022/08/21 09:36:56;;;;;;;6.72;1.48;;;;;;;30.61;33.02;101101.03;5079204;28;20524;-69
2022/08/21 09:39:26;;;;;;;4.07;1.40;;;;;;;30.81;32.39;101101.97;5074779;27;20048;-69
2022/08/21 09:41:57;;;;;;;5.65;1.52;;;;;;;30.92;31.38;101103.25;5074012;27;20048;-69
2022/08/21 09:44:28;;;;;;;4.38;1.50;;;;;;;30.29;30.55;101104.38;5080874;27;20044;-69
2022/08/21 09:46:54;;;;;;;4.28;1.60;;;;;;;29.40;32.46;101114.00;5073944;27;20044;-69
2022/08/21 09:49:29;;;;;;;5.05;1.75;;;;;;;28.86;32.27;101109.00;5084075;27;20040;-69
2022/08/21 09:51:58;;;;;;;4.57;1.63;;;;;;;29.40;32.88;101105.91;5084169;28;20050;-69
2022/08/21 09:54:29;;;;;;;6.10;1.40;;;;;;;29.41;32.05;101103.03;5084422;27;20051;-69
2022/08/21 09:59:43;;;;;;;7.68;1.80;;;;;;;29.53;35.37;101089.81;5081345;28;20055;-69
2022/08/21 10:02:24;;;;;;;6.47;1.90;;;;;;;29.04;33.73;101087.00;5080346;27;20078;-70
2022/08/21 10:04:54;;;;;;;5.13;1.42;;;;;;;28.80;35.16;101088.19;5080364;27;20044;-69
2022/08/21 10:07:23;;;;;;;7.00;1.65;;;;;;;29.92;33.99;101084.78;5079957;28;20515;-69
2022/08/21 10:09:59;;;;;;;4.10;1.35;;;;;;;30.90;32.19;101078.22;5065407;28;20048;-69
2022/08/21 10:12:32;;;;;;;7.65;1.85;;;;;;;31.76;31.44;101084.69;5074203;27;20058;-70
2022/08/21 10:15:09;;;;;;;5.70;1.73;;;;;;;31.86;30.05;101079.66;5071083;28;20048;-70
2022/08/21 10:17:45;;;;;;;7.10;1.58;;;;;;;31.71;32.44;101082.59;5076762;27;20120;-70
2022/08/21 10:20:20;;;;;;;6.97;1.52;;;;;;;31.74;30.82;101075.94;5081411;27;20173;-70
2022/08/21 10:23:02;;;;;;;4.65;1.45;;;;;;;31.37;31.82;101083.56;5068116;28;20054;-70
2022/08/21 10:25:33;;;;;;;;;;;;;;;31.84;31.89;101082.59;5063944;28;20040;-70
2022/08/21 10:28:05;;;;;;;6.30;1.60;;;;;;;31.98;28.98;101077.16;5063610;28;19920;-70
2022/08/21 10:30:39;;;;;;;7.10;1.38;;;;;;;32.05;29.99;101078.81;5064479;28;20086;-70
2022/08/21 10:33:17;;;;;;;6.43;1.67;;;;;;;31.55;29.33;101085.75;5076422;28;20480;-70
2022/08/21 10:35:52;;;;;;;8.93;2.15;;;;;;;30.97;32.58;101072.88;5076122;28;20553;-69
2022/08/21 10:38:38;;;;;;;4.10;1.73;;;;;;;30.97;30.17;101078.28;5084709;28;20449;-69
2022/08/21 10:41:14;;;;;;;7.00;1.80;;;;;;;30.89;31.15;101080.09;5071926;28;20051;-69
2022/08/21 10:43:46;;;;;;;5.85;1.90;;;;;;;30.19;32.57;101074.16;5076739;27;20044;-69
2022/08/21 10:46:19;;;;;;;6.57;1.83;;;;;;;31.13;32.66;101067.91;5068399;28;20044;-69
2022/08/21 10:48:51;;;;;;;3.65;1.42;;;;;;;32.11;31.67;101064.44;5084387;28;20040;-69
2022/08/21 10:51:27;;;;;;;6.93;1.50;;;;;;;32.05;31.36;101072.56;5082893;27;20063;-70
2022/08/21 10:54:04;;;;;;;7.28;1.90;;;;;;;32.76;30.15;101063.41;5072862;27;20040;-70
2022/08/21 10:56:32;;;;;;;5.18;1.60;;;;;;;32.37;28.87;101066.25;5057043;28;20545;-70
2022/08/21 10:59:20;;;;;;;7.47;1.50;;;;;;;31.16;32.63;101053.13;5095262;28;20052;-70
2022/08/21 11:01:53;;;;;;;4.28;1.50;;;;;;;30.20;32.73;101056.84;5066336;28;20063;-69
2022/08/21 11:04:24;;;;;;;3.63;1.38;;;;;;;31.22;32.43;101057.72;5086599;28;20048;-69
2022/08/21 11:06:58;;;;;;;3.20;1.48;;;;;;;31.18;28.72;101053.75;5088112;28;20123;-70
2022/08/21 11:09:27;;;;;;;6.57;1.63;;;;;;;31.41;32.23;101061.50;5087459;27;20093;-69
2022/08/21 11:11:56;;;;;;;5.30;1.67;;;;;;;31.54;32.45;101059.66;5080335;27;20039;-69
2022/08/21 11:14:32;;;;;;;8.10;1.73;;;;;;;30.89;32.61;101049.50;5087462;27;20081;-69
2022/08/21 11:17:06;;;;;;;7.47;1.63;;;;;;;30.54;31.14;101056.88;5087801;27;20044;-69
2022/08/21 11:19:39;;;;;;;6.38;1.60;;;;;;;30.85;31.95;101054.50;5086615;27;20044;-71
2022/08/21 11:22:15;;;;;;;4.78;1.40;;;;;;;31.20;30.37;101044.38;5087638;27;20446;-70
2022/08/21 11:24:53;;;;;;;11.23;1.70;;;;;;;30.82;30.56;101054.06;5086508;27;20040;-70
2022/08/21 11:27:25;;;;;;;3.60;1.40;;;;;;;30.74;33.20;101056.97;5086898;27;20055;-71
2022/08/21 11:29:56;;;;;;;5.07;1.60;;;;;;;30.51;34.24;101054.56;5086849;27;20097;-70
2022/08/21 11:32:58;;;;;;;3.58;1.40;;;;;;;29.40;32.05;101058.13;5071159;28;20052;-70
2022/08/21 11:35:34;;;;;;;6.32;1.30;;;;;;;29.59;33.72;101061.19;5070212;28;20488;-70